sensor_id;sensor_type;location;lat;lon;timestamp;pressure;altitude;pressure_sealevel;temperature;humidity
71145;BME280;58812;47.698;17.726;2022-09-01T00:00:19;100328.28;;;17.39;90.43
71145;BME280;58812;47.698;17.726;2022-09-01T00:02:47;100319.47;;;17.15;91.78
71145;BME280;58812;47.698;17.726;2022-09-01T00:05:14;100323.47;;;17.04;92.63
71145;BME280;58812;47.698;17.726;2022-09-01T00:07:39;100325.41;;;17.25;92.43
71145;BME280;58812;47.698;17.726;2022-09-01T00:10:06;100329.25;;;17.01;92.48
71145;BME280;58812;47.698;17.726;2022-09-01T00:12:33;100327.06;;;17.41;92.55
71145;BME280;58812;47.698;17.726;2022-09-01T00:14:59;100319.84;;;17.63;90.33
71145;BME280;58812;47.698;17.726;2022-09-01T00:17:25;100324.78;;;17.74;90.16
71145;BME280;58812;47.698;17.726;2022-09-01T00:19:51;100320.75;;;17.70;89.58
71145;BME280;58812;47.698;17.726;2022-09-01T00:22:16;100324.00;;;18.02;90.53
71145;BME280;58812;47.698;17.726;2022-09-01T00:24:41;100320.41;;;18.16;88.18
71145;BME280;58812;47.698;17.726;2022-09-01T00:27:07;100321.81;;;18.12;88.60
71145;BME280;58812;47.698;17.726;2022-09-01T00:29:32;100316.25;;;18.20;88.93
71145;BME280;58812;47.698;17.726;2022-09-01T00:31:58;100316.56;;;18.32;87.35
71145;BME280;58812;47.698;17.726;2022-09-01T00:34:23;100315.63;;;18.18;88.05
71145;BME280;58812;47.698;17.726;2022-09-01T00:36:49;100314.16;;;18.15;89.12
71145;BME280;58812;47.698;17.726;2022-09-01T00:39:14;100319.88;;;18.06;88.50
71145;BME280;58812;47.698;17.726;2022-09-01T00:41:40;100319.19;;;17.97;88.71
71145;BME280;58812;47.698;17.726;2022-09-01T00:44:11;100325.03;;;18.01;89.49
71145;BME280;58812;47.698;17.726;2022-09-01T00:46:48;100326.09;;;18.21;88.95
71145;BME280;58812;47.698;17.726;2022-09-01T00:49:21;100328.66;;;18.08;88.75
71145;BME280;58812;47.698;17.726;2022-09-01T00:51:53;100330.22;;;18.17;87.55
71145;BME280;58812;47.698;17.726;2022-09-01T00:54:23;100332.03;;;18.10;88.43
71145;BME280;58812;47.698;17.726;2022-09-01T00:56:50;100334.47;;;18.05;89.20
71145;BME280;58812;47.698;17.726;2022-09-01T00:59:17;100323.84;;;18.03;88.20
71145;BME280;58812;47.698;17.726;2022-09-01T01:01:44;100325.56;;;18.11;87.87
71145;BME280;58812;47.698;17.726;2022-09-01T01:04:10;100316.16;;;17.85;88.83
71145;BME280;58812;47.698;17.726;2022-09-01T01:06:47;100322.22;;;18.09;89.49
71145;BME280;58812;47.698;17.726;2022-09-01T01:09:18;100319.19;;;17.97;90.29
71145;BME280;58812;47.698;17.726;2022-09-01T01:11:44;100313.12;;;17.95;89.00
71145;BME280;58812;47.698;17.726;2022-09-01T01:14:12;100309.44;;;17.81;88.85
71145;BME280;58812;47.698;17.726;2022-09-01T01:16:43;100309.56;;;17.95;90.24
71145;BME280;58812;47.698;17.726;2022-09-01T01:19:24;100311.75;;;17.84;89.56
71145;BME280;58812;47.698;17.726;2022-09-01T01:22:21;100302.72;;;17.77;90.30
71145;BME280;58812;47.698;17.726;2022-09-01T01:25:06;100309.38;;;17.75;90.39
71145;BME280;58812;47.698;17.726;2022-09-01T01:27:33;100313.03;;;17.67;89.88
71145;BME280;58812;47.698;17.726;2022-09-01T01:30:03;100317.12;;;17.63;89.11
71145;BME280;58812;47.698;17.726;2022-09-01T01:32:28;100323.50;;;17.92;89.18
71145;BME280;58812;47.698;17.726;2022-09-01T01:34:55;100324.72;;;17.89;88.89
71145;BME280;58812;47.698;17.726;2022-09-01T01:37:21;100325.56;;;17.89;88.97
71145;BME280;58812;47.698;17.726;2022-09-01T01:39:50;100331.44;;;17.57;90.46
71145;BME280;58812;47.698;17.726;2022-09-01T01:42:16;100328.06;;;17.55;90.79
71145;BME280;58812;47.698;17.726;2022-09-01T01:44:42;100324.84;;;17.45;90.04
71145;BME280;58812;47.698;17.726;2022-09-01T01:47:10;100327.81;;;17.50;89.90
71145;BME280;58812;47.698;17.726;2022-09-01T01:49:38;100335.16;;;17.56;91.19
71145;BME280;58812;47.698;17.726;2022-09-01T01:52:09;100325.09;;;17.50;90.85
71145;BME280;58812;47.698;17.726;2022-09-01T01:54:35;100329.56;;;17.57;90.13
71145;BME280;58812;47.698;17.726;2022-09-01T01:57:01;100328.41;;;17.67;90.31
71145;BME280;58812;47.698;17.726;2022-09-01T01:59:29;100330.28;;;17.66;89.47
71145;BME280;58812;47.698;17.726;2022-09-01T02:01:57;100323.41;;;17.49;90.92
71145;BME280;58812;47.698;17.726;2022-09-01T02:04:26;100328.53;;;17.58;90.65
71145;BME280;58812;47.698;17.726;2022-09-01T02:06:58;100318.16;;;17.62;90.97
71145;BME280;58812;47.698;17.726;2022-09-01T02:09:24;100324.03;;;17.80;89.74
71145;BME280;58812;47.698;17.726;2022-09-01T02:11:50;100317.25;;;17.91;90.49
71145;BME280;58812;47.698;17.726;2022-09-01T02:14:19;100314.00;;;18.02;90.03
71145;BME280;58812;47.698;17.726;2022-09-01T02:16:45;100326.09;;;18.00;88.67
71145;BME280;58812;47.698;17.726;2022-09-01T02:19:11;100320.66;;;18.00;89.09
71145;BME280;58812;47.698;17.726;2022-09-01T02:21:37;100321.69;;;17.77;90.42
71145;BME280;58812;47.698;17.726;2022-09-01T02:24:08;100327.31;;;17.61;90.95
71145;BME280;58812;47.698;17.726;2022-09-01T02:26:39;100328.44;;;17.52;91.83
71145;BME280;58812;47.698;17.726;2022-09-01T02:29:09;100308.16;;;17.26;92.31
71145;BME280;58812;47.698;17.726;2022-09-01T02:31:35;100320.94;;;17.18;92.45
71145;BME280;58812;47.698;17.726;2022-09-01T02:34:05;100326.00;;;17.21;91.19
71145;BME280;58812;47.698;17.726;2022-09-01T02:36:35;100329.34;;;17.23;92.01
71145;BME280;58812;47.698;17.726;2022-09-01T02:39:02;100317.84;;;17.35;90.93
71145;BME280;58812;47.698;17.726;2022-09-01T02:41:27;100317.28;;;17.40;90.20
71145;BME280;58812;47.698;17.726;2022-09-01T02:43:58;100319.16;;;17.40;91.05
71145;BME280;58812;47.698;17.726;2022-09-01T02:46:26;100318.03;;;17.19;91.50
71145;BME280;58812;47.698;17.726;2022-09-01T02:48:54;100306.69;;;17.09;91.76
71145;BME280;58812;47.698;17.726;2022-09-01T02:51:23;100306.56;;;17.17;91.65
71145;BME280;58812;47.698;17.726;2022-09-01T02:53:52;100311.06;;;17.10;91.86
71145;BME280;58812;47.698;17.726;2022-09-01T02:56:21;100314.34;;;17.20;91.88
71145;BME280;58812;47.698;17.726;2022-09-01T02:58:47;100304.34;;;17.21;92.04
71145;BME280;58812;47.698;17.726;2022-09-01T03:01:19;100308.88;;;17.35;91.72
71145;BME280;58812;47.698;17.726;2022-09-01T03:03:52;100296.31;;;17.27;90.54
71145;BME280;58812;47.698;17.726;2022-09-01T03:06:19;100304.97;;;17.38;90.90
71145;BME280;58812;47.698;17.726;2022-09-01T03:08:49;100300.69;;;17.28;91.59
71145;BME280;58812;47.698;17.726;2022-09-01T03:11:14;100303.69;;;17.04;92.27
71145;BME280;58812;47.698;17.726;2022-09-01T03:13:41;100301.31;;;17.30;92.33
71145;BME280;58812;47.698;17.726;2022-09-01T03:16:08;100294.81;;;17.25;92.77
71145;BME280;58812;47.698;17.726;2022-09-01T03:18:34;100309.69;;;17.14;92.67
71145;BME280;58812;47.698;17.726;2022-09-01T03:21:01;100305.72;;;17.31;92.44
71145;BME280;58812;47.698;17.726;2022-09-01T03:23:29;100311.19;;;17.53;92.38
71145;BME280;58812;47.698;17.726;2022-09-01T03:25:56;100305.16;;;17.72;91.25
71145;BME280;58812;47.698;17.726;2022-09-01T03:28:21;100307.87;;;17.72;90.21
71145;BME280;58812;47.698;17.726;2022-09-01T03:30:52;100302.69;;;17.56;90.11
71145;BME280;58812;47.698;17.726;2022-09-01T03:33:19;100301.84;;;17.55;90.70
71145;BME280;58812;47.698;17.726;2022-09-01T03:35:46;100304.78;;;17.60;91.82
71145;BME280;58812;47.698;17.726;2022-09-01T03:38:13;100297.84;;;17.36;91.43
71145;BME280;58812;47.698;17.726;2022-09-01T03:40:57;100288.56;;;17.24;92.34
71145;BME280;58812;47.698;17.726;2022-09-01T03:43:27;100302.84;;;17.18;93.34
71145;BME280;58812;47.698;17.726;2022-09-01T03:45:57;100298.75;;;16.93;93.58
71145;BME280;58812;47.698;17.726;2022-09-01T03:48:29;100305.94;;;16.86;93.93
71145;BME280;58812;47.698;17.726;2022-09-01T03:50:57;100307.03;;;17.06;94.20
71145;BME280;58812;47.698;17.726;2022-09-01T03:53:27;100310.31;;;17.16;93.56
71145;BME280;58812;47.698;17.726;2022-09-01T03:55:54;100299.84;;;17.13;93.78
71145;BME280;58812;47.698;17.726;2022-09-01T03:58:22;100299.00;;;17.27;94.02
71145;BME280;58812;47.698;17.726;2022-09-01T04:00:53;100302.19;;;17.16;94.07
71145;BME280;58812;47.698;17.726;2022-09-01T04:03:21;100301.91;;;17.11;94.36
71145;BME280;58812;47.698;17.726;2022-09-01T04:05:48;100297.06;;;17.06;94.87
71145;BME280;58812;47.698;17.726;2022-09-01T04:08:15;100302.09;;;16.95;94.42
71145;BME280;58812;47.698;17.726;2022-09-01T04:10:50;100300.97;;;17.33;93.79
71145;BME280;58812;47.698;17.726;2022-09-01T04:13:25;100297.91;;;17.07;94.65
71145;BME280;58812;47.698;17.726;2022-09-01T04:15:51;100295.47;;;17.12;95.41
71145;BME280;58812;47.698;17.726;2022-09-01T04:18:18;100303.22;;;17.00;96.16
71145;BME280;58812;47.698;17.726;2022-09-01T04:20:52;100296.50;;;17.26;94.22
71145;BME280;58812;47.698;17.726;2022-09-01T04:23:23;100300.75;;;17.35;94.51
71145;BME280;58812;47.698;17.726;2022-09-01T04:26:03;100309.91;;;17.19;94.91
71145;BME280;58812;47.698;17.726;2022-09-01T04:28:35;100311.97;;;17.17;95.31
71145;BME280;58812;47.698;17.726;2022-09-01T04:31:03;100310.78;;;17.20;95.57
71145;BME280;58812;47.698;17.726;2022-09-01T04:33:34;100308.59;;;17.45;94.81
71145;BME280;58812;47.698;17.726;2022-09-01T04:36:27;100299.09;;;17.34;94.94
71145;BME280;58812;47.698;17.726;2022-09-01T04:38:59;100293.25;;;17.16;95.99
71145;BME280;58812;47.698;17.726;2022-09-01T04:41:31;100300.25;;;17.10;96.60
71145;BME280;58812;47.698;17.726;2022-09-01T04:43:59;100301.28;;;16.94;95.42
71145;BME280;58812;47.698;17.726;2022-09-01T04:46:33;100308.72;;;17.07;95.90
71145;BME280;58812;47.698;17.726;2022-09-01T04:49:00;100313.56;;;17.26;93.77
71145;BME280;58812;47.698;17.726;2022-09-01T04:51:30;100311.53;;;17.14;94.07
71145;BME280;58812;47.698;17.726;2022-09-01T04:53:57;100311.94;;;16.96;94.42
71145;BME280;58812;47.698;17.726;2022-09-01T04:56:25;100309.56;;;16.78;94.32
71145;BME280;58812;47.698;17.726;2022-09-01T04:58:51;100321.34;;;16.85;94.09
71145;BME280;58812;47.698;17.726;2022-09-01T05:01:22;100314.59;;;16.66;93.46
71145;BME280;58812;47.698;17.726;2022-09-01T05:03:48;100321.16;;;16.49;94.14
71145;BME280;58812;47.698;17.726;2022-09-01T05:06:21;100326.16;;;16.75;94.55
71145;BME280;58812;47.698;17.726;2022-09-01T05:08:46;100320.28;;;16.71;93.83
71145;BME280;58812;47.698;17.726;2022-09-01T05:11:13;100318.34;;;16.80;94.25
71145;BME280;58812;47.698;17.726;2022-09-01T05:13:42;100320.09;;;16.88;93.88
71145;BME280;58812;47.698;17.726;2022-09-01T05:16:13;100312.31;;;16.55;93.31
71145;BME280;58812;47.698;17.726;2022-09-01T05:18:41;100325.34;;;16.74;93.93
71145;BME280;58812;47.698;17.726;2022-09-01T05:21:13;100316.03;;;16.92;93.31
71145;BME280;58812;47.698;17.726;2022-09-01T05:23:44;100324.94;;;17.07;92.63
71145;BME280;58812;47.698;17.726;2022-09-01T05:26:15;100332.59;;;17.18;92.40
71145;BME280;58812;47.698;17.726;2022-09-01T05:28:47;100333.56;;;16.96;93.06
71145;BME280;58812;47.698;17.726;2022-09-01T05:31:14;100329.53;;;17.21;92.31
71145;BME280;58812;47.698;17.726;2022-09-01T05:33:44;100324.31;;;16.90;92.61
71145;BME280;58812;47.698;17.726;2022-09-01T05:36:14;100331.03;;;16.79;92.40
71145;BME280;58812;47.698;17.726;2022-09-01T05:38:39;100325.69;;;16.71;93.34
71145;BME280;58812;47.698;17.726;2022-09-01T05:41:11;100331.66;;;16.81;92.96
71145;BME280;58812;47.698;17.726;2022-09-01T05:43:40;100340.72;;;16.74;93.30
71145;BME280;58812;47.698;17.726;2022-09-01T05:46:12;100336.91;;;16.60;94.24
71145;BME280;58812;47.698;17.726;2022-09-01T05:48:40;100348.00;;;16.73;94.53
71145;BME280;58812;47.698;17.726;2022-09-01T05:51:06;100336.25;;;16.58;94.73
71145;BME280;58812;47.698;17.726;2022-09-01T05:53:32;100343.28;;;16.29;95.33
71145;BME280;58812;47.698;17.726;2022-09-01T05:55:59;100342.13;;;16.24;96.39
71145;BME280;58812;47.698;17.726;2022-09-01T05:58:31;100343.00;;;16.62;96.09
71145;BME280;58812;47.698;17.726;2022-09-01T06:00:57;100344.12;;;16.68;95.40
71145;BME280;58812;47.698;17.726;2022-09-01T06:03:23;100338.44;;;16.63;94.74
71145;BME280;58812;47.698;17.726;2022-09-01T06:05:50;100343.09;;;16.69;95.28
71145;BME280;58812;47.698;17.726;2022-09-01T06:08:19;100344.91;;;16.76;94.17
71145;BME280;58812;47.698;17.726;2022-09-01T06:10:45;100347.06;;;16.81;94.00
71145;BME280;58812;47.698;17.726;2022-09-01T06:13:12;100349.28;;;16.77;93.40
71145;BME280;58812;47.698;17.726;2022-09-01T06:15:40;100351.19;;;16.69;93.18
71145;BME280;58812;47.698;17.726;2022-09-01T06:18:08;100349.25;;;16.63;92.65
71145;BME280;58812;47.698;17.726;2022-09-01T06:20:40;100349.03;;;16.49;92.79
71145;BME280;58812;47.698;17.726;2022-09-01T06:23:07;100352.13;;;16.61;93.11
71145;BME280;58812;47.698;17.726;2022-09-01T06:25:36;100355.28;;;16.50;92.54
71145;BME280;58812;47.698;17.726;2022-09-01T06:28:02;100356.50;;;16.62;92.89
71145;BME280;58812;47.698;17.726;2022-09-01T06:30:29;100357.38;;;16.77;91.34
71145;BME280;58812;47.698;17.726;2022-09-01T06:32:55;100362.91;;;16.84;91.16
71145;BME280;58812;47.698;17.726;2022-09-01T06:35:21;100357.31;;;17.00;91.86
71145;BME280;58812;47.698;17.726;2022-09-01T06:37:55;100363.75;;;16.85;90.76
71145;BME280;58812;47.698;17.726;2022-09-01T06:40:21;100360.03;;;17.15;91.19
71145;BME280;58812;47.698;17.726;2022-09-01T06:42:50;100359.94;;;16.94;88.15
71145;BME280;58812;47.698;17.726;2022-09-01T06:45:19;100357.72;;;16.97;89.02
71145;BME280;58812;47.698;17.726;2022-09-01T06:47:47;100357.12;;;17.17;90.09
71145;BME280;58812;47.698;17.726;2022-09-01T06:50:14;100360.31;;;17.05;87.09
71145;BME280;58812;47.698;17.726;2022-09-01T06:52:41;100361.06;;;16.99;87.85
71145;BME280;58812;47.698;17.726;2022-09-01T06:55:09;100364.12;;;16.81;87.15
71145;BME280;58812;47.698;17.726;2022-09-01T06:57:35;100359.63;;;16.89;88.26
71145;BME280;58812;47.698;17.726;2022-09-01T07:00:04;100364.97;;;17.26;89.06
71145;BME280;58812;47.698;17.726;2022-09-01T07:02:31;100367.03;;;17.39;87.98
71145;BME280;58812;47.698;17.726;2022-09-01T07:04:58;100362.16;;;17.49;86.79
71145;BME280;58812;47.698;17.726;2022-09-01T07:07:23;100368.66;;;17.55;85.72
71145;BME280;58812;47.698;17.726;2022-09-01T07:09:51;100369.16;;;17.73;86.15
71145;BME280;58812;47.698;17.726;2022-09-01T07:12:17;100378.31;;;17.94;84.04
71145;BME280;58812;47.698;17.726;2022-09-01T07:14:43;100374.72;;;17.86;83.87
71145;BME280;58812;47.698;17.726;2022-09-01T07:17:09;100386.22;;;18.10;83.96
71145;BME280;58812;47.698;17.726;2022-09-01T07:19:39;100382.78;;;18.23;82.92
71145;BME280;58812;47.698;17.726;2022-09-01T07:22:05;100382.81;;;18.44;83.45
71145;BME280;58812;47.698;17.726;2022-09-01T07:24:30;100377.81;;;18.48;81.73
71145;BME280;58812;47.698;17.726;2022-09-01T07:26:57;100380.16;;;18.79;81.20
71145;BME280;58812;47.698;17.726;2022-09-01T07:29:22;100386.94;;;18.89;78.54
71145;BME280;58812;47.698;17.726;2022-09-01T07:31:50;100386.09;;;19.17;78.59
71145;BME280;58812;47.698;17.726;2022-09-01T07:34:20;100386.63;;;19.40;76.06
71145;BME280;58812;47.698;17.726;2022-09-01T07:36:45;100386.44;;;19.90;71.89
71145;BME280;58812;47.698;17.726;2022-09-01T07:39:12;100386.19;;;19.78;72.77
71145;BME280;58812;47.698;17.726;2022-09-01T07:41:39;100388.16;;;19.56;72.00
71145;BME280;58812;47.698;17.726;2022-09-01T07:44:05;100388.12;;;19.49;72.32
71145;BME280;58812;47.698;17.726;2022-09-01T07:46:35;100385.25;;;19.58;72.18
71145;BME280;58812;47.698;17.726;2022-09-01T07:49:01;100393.25;;;19.31;70.79
71145;BME280;58812;47.698;17.726;2022-09-01T07:51:27;100393.97;;;19.46;71.65
71145;BME280;58812;47.698;17.726;2022-09-01T07:53:54;100388.94;;;19.43;71.17
71145;BME280;58812;47.698;17.726;2022-09-01T07:56:22;100400.34;;;19.32;70.14
71145;BME280;58812;47.698;17.726;2022-09-01T07:58:49;100397.63;;;19.32;70.09
71145;BME280;58812;47.698;17.726;2022-09-01T08:01:18;100399.78;;;19.43;69.51
71145;BME280;58812;47.698;17.726;2022-09-01T08:03:46;100406.19;;;19.29;68.48
71145;BME280;58812;47.698;17.726;2022-09-01T08:06:13;100403.53;;;19.08;65.02
71145;BME280;58812;47.698;17.726;2022-09-01T08:08:40;100410.19;;;19.33;66.41
71145;BME280;58812;47.698;17.726;2022-09-01T08:11:06;100403.28;;;19.65;67.29
71145;BME280;58812;47.698;17.726;2022-09-01T08:13:34;100404.81;;;19.81;64.69
71145;BME280;58812;47.698;17.726;2022-09-01T08:16:08;100406.31;;;20.04;63.36
71145;BME280;58812;47.698;17.726;2022-09-01T08:18:34;100418.53;;;20.34;62.36
71145;BME280;58812;47.698;17.726;2022-09-01T08:21:05;100424.88;;;20.74;62.28
71145;BME280;58812;47.698;17.726;2022-09-01T08:23:31;100422.72;;;20.43;59.72
71145;BME280;58812;47.698;17.726;2022-09-01T08:25:56;100426.41;;;20.16;62.01
71145;BME280;58812;47.698;17.726;2022-09-01T08:28:21;100424.75;;;20.21;62.71
71145;BME280;58812;47.698;17.726;2022-09-01T08:30:47;100429.78;;;20.18;63.74
71145;BME280;58812;47.698;17.726;2022-09-01T08:33:12;100430.66;;;20.45;63.90
71145;BME280;58812;47.698;17.726;2022-09-01T08:35:44;100431.91;;;20.22;62.46
71145;BME280;58812;47.698;17.726;2022-09-01T08:38:10;100431.09;;;20.35;63.57
71145;BME280;58812;47.698;17.726;2022-09-01T08:40:36;100435.47;;;20.30;63.76
71145;BME280;58812;47.698;17.726;2022-09-01T08:43:14;100440.06;;;20.29;63.69
71145;BME280;58812;47.698;17.726;2022-09-01T08:45:51;100436.06;;;20.25;64.53
71145;BME280;58812;47.698;17.726;2022-09-01T08:48:43;100439.66;;;20.32;64.55
71145;BME280;58812;47.698;17.726;2022-09-01T08:51:24;100433.16;;;20.26;64.77
71145;BME280;58812;47.698;17.726;2022-09-01T08:57:08;100435.25;;;20.24;66.10
71145;BME280;58812;47.698;17.726;2022-09-01T08:59:35;100435.25;;;20.31;67.36
71145;BME280;58812;47.698;17.726;2022-09-01T09:15:43;100421.72;;;19.83;67.83
71145;BME280;58812;47.698;17.726;2022-09-01T09:20:56;100427.16;;;19.77;71.82
71145;BME280;58812;47.698;17.726;2022-09-01T09:23:35;100414.59;;;19.69;71.23
71145;BME280;58812;47.698;17.726;2022-09-01T09:26:03;100420.47;;;19.86;71.13
71145;BME280;58812;47.698;17.726;2022-09-01T09:28:29;100417.13;;;19.77;70.48
71145;BME280;58812;47.698;17.726;2022-09-01T09:33:51;100424.84;;;19.80;69.49
71145;BME280;58812;47.698;17.726;2022-09-01T09:36:20;100423.25;;;19.92;68.80
71145;BME280;58812;47.698;17.726;2022-09-01T09:38:46;100419.87;;;19.90;69.72
71145;BME280;58812;47.698;17.726;2022-09-01T09:41:17;100420.13;;;20.09;68.62
71145;BME280;58812;47.698;17.726;2022-09-01T09:46:47;100418.56;;;19.73;68.19
71145;BME280;58812;47.698;17.726;2022-09-01T09:52:12;100431.34;;;19.86;68.39
71145;BME280;58812;47.698;17.726;2022-09-01T09:55:22;100426.84;;;20.13;67.72
71145;BME280;58812;47.698;17.726;2022-09-01T09:57:48;100426.00;;;20.12;67.15
71145;BME280;58812;47.698;17.726;2022-09-01T10:02:44;100426.81;;;19.99;65.61
71145;BME280;58812;47.698;17.726;2022-09-01T10:08:00;100412.41;;;19.99;66.78
71145;BME280;58812;47.698;17.726;2022-09-01T10:10:46;100417.66;;;20.14;68.14
71145;BME280;58812;47.698;17.726;2022-09-01T10:13:15;100415.53;;;20.16;67.93
71145;BME280;58812;47.698;17.726;2022-09-01T10:15:48;100418.53;;;20.34;67.46
71145;BME280;58812;47.698;17.726;2022-09-01T10:18:17;100420.22;;;20.35;66.43
71145;BME280;58812;47.698;17.726;2022-09-01T10:20:50;100416.50;;;20.63;66.75
71145;BME280;58812;47.698;17.726;2022-09-01T10:23:17;100409.59;;;20.80;60.81
71145;BME280;58812;47.698;17.726;2022-09-01T10:25:43;100410.22;;;20.89;61.01
71145;BME280;58812;47.698;17.726;2022-09-01T10:28:14;100411.69;;;21.11;60.44
71145;BME280;58812;47.698;17.726;2022-09-01T10:30:44;100406.84;;;21.06;62.31
71145;BME280;58812;47.698;17.726;2022-09-01T10:33:15;100409.78;;;20.98;62.23
71145;BME280;58812;47.698;17.726;2022-09-01T10:35:43;100401.25;;;20.82;59.83
71145;BME280;58812;47.698;17.726;2022-09-01T10:38:23;100400.59;;;20.99;59.87
71145;BME280;58812;47.698;17.726;2022-09-01T10:40:51;100405.16;;;21.19;57.95
71145;BME280;58812;47.698;17.726;2022-09-01T10:43:45;100395.09;;;21.26;57.90
71145;BME280;58812;47.698;17.726;2022-09-01T10:48:47;100392.41;;;21.84;54.00
71145;BME280;58812;47.698;17.726;2022-09-01T10:53:49;100396.31;;;22.33;53.94
71145;BME280;58812;47.698;17.726;2022-09-01T10:56:44;100388.97;;;21.50;53.61
71145;BME280;58812;47.698;17.726;2022-09-01T11:04:21;100386.97;;;22.54;51.82
71145;BME280;58812;47.698;17.726;2022-09-01T11:14:32;100398.75;;;22.73;51.46
71145;BME280;58812;47.698;17.726;2022-09-01T11:17:17;100402.25;;;22.55;52.71
71145;BME280;58812;47.698;17.726;2022-09-01T11:22:23;100396.84;;;22.17;54.92
71145;BME280;58812;47.698;17.726;2022-09-01T11:25:05;100397.03;;;22.78;53.33
71145;BME280;58812;47.698;17.726;2022-09-01T11:30:31;100395.44;;;22.96;53.19
71145;BME280;58812;47.698;17.726;2022-09-01T11:35:43;100392.78;;;22.82;53.22
71145;BME280;58812;47.698;17.726;2022-09-01T11:38:15;100392.91;;;22.69;53.48
71145;BME280;58812;47.698;17.726;2022-09-01T11:40:54;100391.12;;;23.06;52.75
71145;BME280;58812;47.698;17.726;2022-09-01T11:43:22;100391.28;;;23.11;52.41
71145;BME280;58812;47.698;17.726;2022-09-01T11:46:06;100385.44;;;22.83;53.99
71145;BME280;58812;47.698;17.726;2022-09-01T11:48:35;100388.12;;;23.33;53.06
71145;BME280;58812;47.698;17.726;2022-09-01T11:51:02;100387.53;;;23.49;52.33
71145;BME280;58812;47.698;17.726;2022-09-01T11:53:29;100384.06;;;22.74;54.16
71145;BME280;58812;47.698;17.726;2022-09-01T11:55:56;100388.03;;;23.58;52.90
71145;BME280;58812;47.698;17.726;2022-09-01T11:58:35;100383.47;;;23.15;53.33
71145;BME280;58812;47.698;17.726;2022-09-01T12:03:55;100379.25;;;23.19;52.20
71145;BME280;58812;47.698;17.726;2022-09-01T12:06:24;100384.16;;;23.47;51.66
71145;BME280;58812;47.698;17.726;2022-09-01T12:08:53;100381.59;;;23.34;50.77
71145;BME280;58812;47.698;17.726;2022-09-01T12:11:22;100378.72;;;24.14;49.62
71145;BME280;58812;47.698;17.726;2022-09-01T12:16:26;100379.19;;;24.22;45.99
71145;BME280;58812;47.698;17.726;2022-09-01T12:18:54;100378.56;;;24.09;45.98
71145;BME280;58812;47.698;17.726;2022-09-01T12:23:47;100369.97;;;24.35;47.18
71145;BME280;58812;47.698;17.726;2022-09-01T12:26:16;100375.66;;;24.34;46.28
71145;BME280;58812;47.698;17.726;2022-09-01T12:28:43;100373.97;;;23.36;46.34
71145;BME280;58812;47.698;17.726;2022-09-01T12:31:19;100380.84;;;23.63;47.04
71145;BME280;58812;47.698;17.726;2022-09-01T12:33:45;100372.78;;;23.13;47.30
71145;BME280;58812;47.698;17.726;2022-09-01T12:36:32;100367.81;;;23.59;45.65
71145;BME280;58812;47.698;17.726;2022-09-01T12:39:22;100369.00;;;23.33;45.88
71145;BME280;58812;47.698;17.726;2022-09-01T12:42:25;100360.56;;;23.71;44.97
71145;BME280;58812;47.698;17.726;2022-09-01T12:45:03;100361.50;;;23.95;44.97
71145;BME280;58812;47.698;17.726;2022-09-01T12:50:05;100361.06;;;24.40;43.39
71145;BME280;58812;47.698;17.726;2022-09-01T12:52:33;100358.59;;;24.50;43.12
71145;BME280;58812;47.698;17.726;2022-09-01T12:57:38;100370.41;;;23.17;43.81
71145;BME280;58812;47.698;17.726;2022-09-01T13:00:22;100360.03;;;23.44;43.03
71145;BME280;58812;47.698;17.726;2022-09-01T13:03:04;100358.81;;;23.58;43.29
71145;BME280;58812;47.698;17.726;2022-09-01T13:05:48;100366.41;;;23.38;43.00
71145;BME280;58812;47.698;17.726;2022-09-01T13:08:20;100361.56;;;22.78;44.56
71145;BME280;58812;47.698;17.726;2022-09-01T13:11:06;100364.12;;;23.35;44.47
71145;BME280;58812;47.698;17.726;2022-09-01T13:13:32;100356.09;;;23.22;44.45
71145;BME280;58812;47.698;17.726;2022-09-01T13:16:00;100354.78;;;23.06;44.94
71145;BME280;58812;47.698;17.726;2022-09-01T13:18:29;100358.22;;;23.19;45.43
71145;BME280;58812;47.698;17.726;2022-09-01T13:20:55;100351.84;;;22.82;44.47
71145;BME280;58812;47.698;17.726;2022-09-01T13:23:21;100359.13;;;23.13;44.47
71145;BME280;58812;47.698;17.726;2022-09-01T13:25:47;100356.41;;;23.13;45.30
71145;BME280;58812;47.698;17.726;2022-09-01T13:28:14;100353.03;;;23.11;44.85
71145;BME280;58812;47.698;17.726;2022-09-01T13:30:42;100350.47;;;22.73;45.70
71145;BME280;58812;47.698;17.726;2022-09-01T13:33:07;100350.28;;;22.93;45.12
71145;BME280;58812;47.698;17.726;2022-09-01T13:35:36;100347.97;;;22.72;45.50
71145;BME280;58812;47.698;17.726;2022-09-01T13:38:02;100342.34;;;22.66;45.97
71145;BME280;58812;47.698;17.726;2022-09-01T13:40:28;100339.78;;;22.72;45.58
71145;BME280;58812;47.698;17.726;2022-09-01T13:42:53;100343.25;;;22.60;45.99
71145;BME280;58812;47.698;17.726;2022-09-01T13:45:21;100339.09;;;22.76;46.03
71145;BME280;58812;47.698;17.726;2022-09-01T13:47:50;100333.44;;;22.78;45.93
71145;BME280;58812;47.698;17.726;2022-09-01T13:50:18;100343.31;;;22.54;45.63
71145;BME280;58812;47.698;17.726;2022-09-01T13:52:50;100339.28;;;22.56;45.38
71145;BME280;58812;47.698;17.726;2022-09-01T13:55:20;100337.78;;;22.60;45.97
71145;BME280;58812;47.698;17.726;2022-09-01T13:57:46;100333.28;;;22.48;45.60
71145;BME280;58812;47.698;17.726;2022-09-01T14:00:14;100334.94;;;22.49;45.63
71145;BME280;58812;47.698;17.726;2022-09-01T14:02:47;100336.31;;;22.33;45.76
71145;BME280;58812;47.698;17.726;2022-09-01T14:05:19;100335.78;;;22.49;46.54